THY34 LTFM-KJFK
Flight info
| Callsign | THY34 |
|---|---|
| Flight time | N/A |
| Altitude | 32000 |
| Route | TUDBU1D/35L TUDBU Q26 ETUBA T226 NAVOD DCT MOPUG DCT BEGLA DCT DITIS DCT SOPGA DCT VARIK L602 PEROX Z715 UNAVI Z93 KODUK/N0424F240 Z93 ETOLU/N0436F260 Z719 BIBTA/N0424F240 N850 GISEM Z505 ARPEG/N0478F320 Z850 HMM L602 REBGU/N0480F340 L602 MIMVA DCT OTBED Y70 GOLES/N0422F240 L975 DESIG L70 PENIL/N0475F340 M144 BAGSO DCT DOGAL/M083F350 NATC ELSIR/N0474F360 N402C ALLEX DCT ENE PARCH4 |
| Aircraft | B772/H-SDE2E3FGHIJ5LORVWXY/AA6BA4 |
Departure
| Time | 2026-05-07 10:50 |
|---|---|
| Airport | İstanbul Airport (LTFM) |
Arrival
| Time | N/A |
|---|---|
| Airport | John F. Kennedy International Airport (KJFK) |
| Time | Latitude | Longitude | Altitude | Speed | Heading |
|---|---|---|---|---|---|
| 2026-05-07 10:34 | 41.26008 | 28.73540 | 339 ft | 0 kts | 107° |
| 2026-05-07 10:42 | 41.26011 | 28.73527 | 339 ft | 2 kts | 109° |
| 2026-05-07 10:43 | 41.26015 | 28.73511 | 339 ft | 0 kts | 108° |
| 2026-05-07 10:43 | 41.26018 | 28.73495 | 339 ft | 2 kts | 93° |
| 2026-05-07 10:43 | 41.26016 | 28.73476 | 339 ft | 2 kts | 66° |
| 2026-05-07 10:43 | 41.26008 | 28.73459 | 339 ft | 2 kts | 43° |
| 2026-05-07 10:44 | 41.25995 | 28.73448 | 339 ft | 1 kts | 20° |
| 2026-05-07 10:44 | 41.25990 | 28.73446 | 339 ft | 0 kts | 17° |
| 2026-05-07 10:46 | 41.25995 | 28.73448 | 339 ft | 2 kts | 17° |
| 2026-05-07 10:46 | 41.26025 | 28.73460 | 339 ft | 6 kts | 17° |
| 2026-05-07 10:46 | 41.26081 | 28.73482 | 339 ft | 9 kts | 17° |
| 2026-05-07 10:46 | 41.26148 | 28.73504 | 339 ft | 9 kts | 3° |
| 2026-05-07 10:47 | 41.26194 | 28.73469 | 339 ft | 7 kts | 297° |
| 2026-05-07 10:47 | 41.26208 | 28.73406 | 339 ft | 6 kts | 280° |
| 2026-05-07 10:47 | 41.26210 | 28.73337 | 339 ft | 8 kts | 268° |
| 2026-05-07 10:47 | 41.26208 | 28.73246 | 339 ft | 11 kts | 268° |
| 2026-05-07 10:48 | 41.26206 | 28.73126 | 339 ft | 14 kts | 271° |
| 2026-05-07 10:48 | 41.26206 | 28.72979 | 339 ft | 16 kts | 269° |
| 2026-05-07 10:48 | 41.26203 | 28.72823 | 339 ft | 16 kts | 269° |
| 2026-05-07 10:48 | 41.26201 | 28.72683 | 339 ft | 14 kts | 269° |
| 2026-05-07 10:49 | 41.26210 | 28.72566 | 339 ft | 11 kts | 309° |
| 2026-05-07 10:49 | 41.26271 | 28.72530 | 339 ft | 8 kts | 349° |
| 2026-05-07 10:49 | 41.26438 | 28.72517 | 339 ft | 54 kts | 359° |
| 2026-05-07 10:49 | 41.27058 | 28.72509 | 339 ft | 121 kts | 0° |
| 2026-05-07 10:50 | 41.28129 | 28.72490 | 342 ft | 178 kts | 1° |
| 2026-05-07 10:50 | 41.29431 | 28.72488 | 824 ft | 191 kts | 1° |
| 2026-05-07 10:50 | 41.30853 | 28.72526 | 1361 ft | 211 kts | 2° |
| 2026-05-07 10:50 | 41.32321 | 28.72519 | 2328 ft | 211 kts | 358° |
| 2026-05-07 10:51 | 41.33806 | 28.72499 | 3149 ft | 218 kts | 358° |
| 2026-05-07 10:51 | 41.35323 | 28.72505 | 3969 ft | 224 kts | 358° |
| 2026-05-07 10:51 | 41.36871 | 28.72520 | 4843 ft | 223 kts | 358° |
| 2026-05-07 10:51 | 41.38422 | 28.72329 | 5245 ft | 232 kts | 340° |
| 2026-05-07 10:52 | 41.39956 | 28.71466 | 5511 ft | 248 kts | 333° |
| 2026-05-07 10:52 | 41.41557 | 28.70424 | 5991 ft | 257 kts | 333° |
| 2026-05-07 10:52 | 41.43172 | 28.69383 | 6672 ft | 258 kts | 333° |
| 2026-05-07 10:52 | 41.44791 | 28.68346 | 7280 ft | 261 kts | 333° |
| 2026-05-07 10:53 | 41.46417 | 28.67307 | 7906 ft | 262 kts | 334° |
| 2026-05-07 10:53 | 41.48073 | 28.66248 | 8544 ft | 265 kts | 334° |
| 2026-05-07 10:53 | 41.49717 | 28.65196 | 9142 ft | 267 kts | 334° |
| 2026-05-07 10:53 | 41.51392 | 28.64124 | 9750 ft | 269 kts | 334° |
| 2026-05-07 10:54 | 41.53096 | 28.63033 | 10322 ft | 273 kts | 334° |
| 2026-05-07 10:54 | 41.54841 | 28.61915 | 10577 ft | 288 kts | 334° |
| 2026-05-07 10:54 | 41.56705 | 28.60625 | 10836 ft | 305 kts | 328° |
| 2026-05-07 10:54 | 41.58414 | 28.58878 | 11071 ft | 322 kts | 317° |
| 2026-05-07 10:55 | 41.60007 | 28.56626 | 11350 ft | 338 kts | 313° |
| 2026-05-07 10:55 | 41.61609 | 28.54251 | 11645 ft | 352 kts | 313° |
| 2026-05-07 10:55 | 41.63299 | 28.51757 | 11971 ft | 366 kts | 313° |
| 2026-05-07 10:55 | 41.65023 | 28.49222 | 12560 ft | 372 kts | 313° |
| 2026-05-07 10:56 | 41.66678 | 28.46574 | 13238 ft | 376 kts | 306° |
| 2026-05-07 10:56 | 41.67988 | 28.43540 | 13851 ft | 382 kts | 297° |
| 2026-05-07 10:56 | 41.69072 | 28.40290 | 14583 ft | 385 kts | 295° |
| 2026-05-07 10:56 | 41.70147 | 28.36993 | 15344 ft | 387 kts | 295° |
| 2026-05-07 10:57 | 41.71228 | 28.33675 | 16047 ft | 390 kts | 295° |
| 2026-05-07 10:57 | 41.72306 | 28.30367 | 16733 ft | 393 kts | 295° |
| 2026-05-07 10:57 | 41.73421 | 28.26943 | 17393 ft | 397 kts | 295° |
| 2026-05-07 10:57 | 41.74519 | 28.23566 | 18101 ft | 399 kts | 295° |
| 2026-05-07 10:58 | 41.75624 | 28.20168 | 18791 ft | 401 kts | 295° |
| 2026-05-07 10:58 | 41.76735 | 28.16746 | 19428 ft | 404 kts | 295° |
| 2026-05-07 10:58 | 41.77864 | 28.13263 | 20040 ft | 407 kts | 295° |
| 2026-05-07 10:58 | 41.79022 | 28.09790 | 20672 ft | 408 kts | 298° |
| 2026-05-07 10:59 | 41.80512 | 28.06526 | 21276 ft | 408 kts | 307° |
| 2026-05-07 10:59 | 41.82229 | 28.03443 | 21866 ft | 410 kts | 308° |
| 2026-05-07 10:59 | 41.83953 | 28.00384 | 22449 ft | 412 kts | 308° |
| 2026-05-07 10:59 | 41.85673 | 27.97331 | 23037 ft | 414 kts | 308° |
| 2026-05-07 11:00 | 41.87417 | 27.94228 | 23603 ft | 415 kts | 308° |
| 2026-05-07 11:00 | 41.89160 | 27.91122 | 24076 ft | 419 kts | 308° |
| 2026-05-07 11:00 | 41.90939 | 27.87946 | 24565 ft | 422 kts | 308° |
| 2026-05-07 11:00 | 41.92704 | 27.84791 | 25053 ft | 425 kts | 308° |
| 2026-05-07 11:01 | 41.94474 | 27.81623 | 25496 ft | 429 kts | 308° |
| 2026-05-07 11:01 | 41.96274 | 27.78424 | 25928 ft | 432 kts | 310° |
| 2026-05-07 11:01 | 41.98313 | 27.75419 | 26380 ft | 434 kts | 315° |
| 2026-05-07 11:01 | 42.00433 | 27.72521 | 26883 ft | 436 kts | 315° |
| 2026-05-07 11:02 | 42.02602 | 27.69563 | 27378 ft | 438 kts | 315° |
| 2026-05-07 11:02 | 42.04746 | 27.66634 | 27794 ft | 441 kts | 315° |
| 2026-05-07 11:02 | 42.06941 | 27.63630 | 28195 ft | 445 kts | 315° |
| 2026-05-07 11:02 | 42.09121 | 27.60642 | 28660 ft | 447 kts | 315° |
| 2026-05-07 11:03 | 42.11323 | 27.57620 | 29116 ft | 449 kts | 314° |
| 2026-05-07 11:03 | 42.13511 | 27.54615 | 29602 ft | 451 kts | 314° |
| 2026-05-07 11:03 | 42.15702 | 27.51600 | 30202 ft | 450 kts | 314° |
| 2026-05-07 11:03 | 42.17895 | 27.48579 | 30946 ft | 445 kts | 314° |
| 2026-05-07 11:04 | 42.20054 | 27.45602 | 31655 ft | 441 kts | 314° |
| 2026-05-07 11:04 | 42.22178 | 27.42670 | 32081 ft | 443 kts | 314° |
| 2026-05-07 11:04 | 42.26506 | 27.36685 | 32096 ft | 442 kts | 314° |
| 2026-05-07 11:05 | 42.30810 | 27.30721 | 32104 ft | 441 kts | 314° |
| 2026-05-07 11:05 | 42.35073 | 27.24803 | 32100 ft | 442 kts | 314° |
| 2026-05-07 11:06 | 42.39375 | 27.18818 | 32099 ft | 442 kts | 314° |
| 2026-05-07 11:06 | 42.43684 | 27.12810 | 32095 ft | 441 kts | 314° |
| 2026-05-07 11:07 | 42.47973 | 27.06817 | 32088 ft | 443 kts | 314° |
| 2026-05-07 11:07 | 42.52233 | 27.00851 | 32086 ft | 441 kts | 314° |
| 2026-05-07 11:08 | 42.56502 | 26.94861 | 32086 ft | 441 kts | 314° |
| 2026-05-07 11:08 | 42.60800 | 26.88819 | 32084 ft | 442 kts | 314° |
| 2026-05-07 11:09 | 42.65055 | 26.82824 | 32084 ft | 442 kts | 314° |
| 2026-05-07 11:09 | 42.69338 | 26.76776 | 32077 ft | 443 kts | 314° |
| 2026-05-07 11:10 | 42.73594 | 26.70753 | 32080 ft | 443 kts | 314° |
| 2026-05-07 11:10 | 42.77871 | 26.64688 | 32081 ft | 444 kts | 313° |
| 2026-05-07 11:11 | 42.81861 | 26.58250 | 32083 ft | 445 kts | 302° |
| 2026-05-07 11:11 | 42.84831 | 26.50856 | 32088 ft | 446 kts | 299° |
| 2026-05-07 11:12 | 42.87735 | 26.43378 | 32089 ft | 445 kts | 298° |
| 2026-05-07 11:12 | 42.90617 | 26.35928 | 32082 ft | 445 kts | 298° |
| 2026-05-07 11:13 | 42.93503 | 26.28444 | 32087 ft | 446 kts | 298° |
| 2026-05-07 11:13 | 42.96385 | 26.20946 | 32083 ft | 446 kts | 298° |
| 2026-05-07 11:14 | 42.99282 | 26.13391 | 32078 ft | 447 kts | 297° |
| 2026-05-07 11:14 | 43.02151 | 26.05886 | 32069 ft | 448 kts | 297° |
| 2026-05-07 11:15 | 43.05037 | 25.98317 | 32057 ft | 448 kts | 297° |
| 2026-05-07 11:15 | 43.07922 | 25.90731 | 32044 ft | 448 kts | 297° |
| 2026-05-07 11:16 | 43.10768 | 25.83227 | 32047 ft | 447 kts | 297° |
| 2026-05-07 11:16 | 43.13642 | 25.75630 | 32045 ft | 449 kts | 297° |
| 2026-05-07 11:17 | 43.16831 | 25.68297 | 32055 ft | 448 kts | 305° |
| 2026-05-07 11:17 | 43.20523 | 25.61373 | 32046 ft | 450 kts | 306° |
| 2026-05-07 11:18 | 43.24227 | 25.54415 | 32048 ft | 449 kts | 305° |
| 2026-05-07 11:18 | 43.27886 | 25.47518 | 32039 ft | 450 kts | 305° |
| 2026-05-07 11:19 | 43.31576 | 25.40539 | 32041 ft | 450 kts | 305° |
| 2026-05-07 11:19 | 43.35251 | 25.33573 | 32042 ft | 450 kts | 304° |
| 2026-05-07 11:20 | 43.38931 | 25.26578 | 32039 ft | 451 kts | 304° |
| 2026-05-07 11:20 | 43.42607 | 25.19572 | 32037 ft | 450 kts | 304° |
| 2026-05-07 11:21 | 43.46260 | 25.12594 | 32032 ft | 451 kts | 304° |
| 2026-05-07 11:21 | 43.49936 | 25.05556 | 32031 ft | 451 kts | 304° |
| 2026-05-07 11:22 | 43.53590 | 24.98543 | 32034 ft | 451 kts | 304° |
| 2026-05-07 11:22 | 43.57269 | 24.91464 | 32041 ft | 452 kts | 304° |
| 2026-05-07 11:23 | 43.60926 | 24.84412 | 32043 ft | 451 kts | 304° |
| 2026-05-07 11:23 | 43.64574 | 24.77358 | 32049 ft | 452 kts | 304° |
| 2026-05-07 11:24 | 43.68233 | 24.70267 | 32051 ft | 454 kts | 304° |
| 2026-05-07 11:24 | 43.71878 | 24.63187 | 32046 ft | 454 kts | 304° |
| 2026-05-07 11:25 | 43.75591 | 24.56043 | 32039 ft | 454 kts | 308° |
| 2026-05-07 11:25 | 43.79827 | 24.49573 | 32046 ft | 456 kts | 311° |
| 2026-05-07 11:26 | 43.84172 | 24.43080 | 32047 ft | 457 kts | 311° |
| 2026-05-07 11:26 | 43.88458 | 24.36649 | 32047 ft | 457 kts | 311° |
| 2026-05-07 11:27 | 43.92802 | 24.30109 | 32057 ft | 457 kts | 310° |
| 2026-05-07 11:27 | 43.97110 | 24.23607 | 32060 ft | 459 kts | 310° |
| 2026-05-07 11:28 | 44.01447 | 24.17044 | 32058 ft | 457 kts | 310° |
| 2026-05-07 11:28 | 44.05732 | 24.10543 | 32064 ft | 459 kts | 310° |
| 2026-05-07 11:29 | 44.10052 | 24.03973 | 32067 ft | 459 kts | 310° |
| 2026-05-07 11:29 | 44.14344 | 23.97432 | 32065 ft | 459 kts | 310° |
| 2026-05-07 11:30 | 44.18658 | 23.90842 | 32065 ft | 459 kts | 310° |
| 2026-05-07 11:30 | 44.22954 | 23.84263 | 32067 ft | 460 kts | 310° |
| 2026-05-07 11:31 | 44.27269 | 23.77640 | 32064 ft | 459 kts | 309° |
| 2026-05-07 11:31 | 44.31569 | 23.71024 | 32061 ft | 459 kts | 309° |
| 2026-05-07 11:32 | 44.38000 | 23.61099 | 32058 ft | 459 kts | 309° |
| 2026-05-07 11:33 | 44.42265 | 23.54497 | 32057 ft | 458 kts | 309° |
| 2026-05-07 11:33 | 44.46543 | 23.47862 | 32053 ft | 458 kts | 309° |
| 2026-05-07 11:34 | 44.50793 | 23.41253 | 32053 ft | 459 kts | 309° |
| 2026-05-07 11:34 | 44.55092 | 23.34551 | 32053 ft | 460 kts | 308° |
| 2026-05-07 11:35 | 44.59350 | 23.27899 | 32060 ft | 459 kts | 308° |
| 2026-05-07 11:35 | 44.63614 | 23.21220 | 32059 ft | 459 kts | 308° |
| 2026-05-07 11:36 | 44.67873 | 23.14533 | 32060 ft | 459 kts | 308° |
| 2026-05-07 11:36 | 44.72126 | 23.07841 | 32058 ft | 458 kts | 308° |
| 2026-05-07 11:37 | 44.76387 | 23.01119 | 32061 ft | 460 kts | 307° |
| 2026-05-07 11:37 | 44.80621 | 22.94425 | 32059 ft | 459 kts | 308° |
| 2026-05-07 11:38 | 44.84884 | 22.87668 | 32062 ft | 459 kts | 307° |
| 2026-05-07 11:38 | 44.89108 | 22.80957 | 32064 ft | 460 kts | 307° |
| 2026-05-07 11:39 | 44.93365 | 22.74177 | 32067 ft | 460 kts | 307° |
| 2026-05-07 11:39 | 44.97570 | 22.67465 | 32067 ft | 458 kts | 307° |
| 2026-05-07 11:40 | 45.01821 | 22.60659 | 32070 ft | 461 kts | 307° |
| 2026-05-07 11:40 | 45.06055 | 22.53868 | 32069 ft | 462 kts | 307° |
| 2026-05-07 11:41 | 45.10304 | 22.47033 | 32069 ft | 463 kts | 307° |
| 2026-05-07 11:41 | 45.14552 | 22.40187 | 32063 ft | 463 kts | 307° |
| 2026-05-07 11:42 | 45.18803 | 22.33316 | 32065 ft | 465 kts | 307° |
| 2026-05-07 11:42 | 45.23082 | 22.26384 | 32063 ft | 463 kts | 307° |
| 2026-05-07 11:43 | 45.27311 | 22.19516 | 32062 ft | 465 kts | 307° |
| 2026-05-07 11:43 | 45.31554 | 22.12608 | 32057 ft | 464 kts | 307° |
| 2026-05-07 11:44 | 45.35799 | 22.05678 | 32050 ft | 465 kts | 307° |
| 2026-05-07 11:44 | 45.40042 | 21.98737 | 32051 ft | 465 kts | 307° |
| 2026-05-07 11:45 | 45.44254 | 21.91828 | 32048 ft | 465 kts | 307° |
| 2026-05-07 11:45 | 45.48491 | 21.84860 | 32043 ft | 466 kts | 307° |
| 2026-05-07 11:46 | 45.52741 | 21.77854 | 32042 ft | 465 kts | 307° |
| 2026-05-07 11:46 | 45.57003 | 21.70810 | 32038 ft | 466 kts | 307° |
| 2026-05-07 11:47 | 45.61238 | 21.63794 | 32038 ft | 466 kts | 307° |
| 2026-05-07 11:47 | 45.65494 | 21.56723 | 32036 ft | 467 kts | 307° |
| 2026-05-07 11:48 | 45.69783 | 21.49581 | 32039 ft | 466 kts | 306° |
| 2026-05-07 11:48 | 45.74014 | 21.42518 | 32038 ft | 466 kts | 306° |
| 2026-05-07 11:49 | 45.78286 | 21.35367 | 32041 ft | 466 kts | 306° |
| 2026-05-07 11:49 | 45.82483 | 21.28323 | 32044 ft | 465 kts | 306° |
| 2026-05-07 11:50 | 45.86713 | 21.21205 | 32049 ft | 467 kts | 306° |
| 2026-05-07 11:50 | 45.90900 | 21.14145 | 32045 ft | 465 kts | 306° |
| 2026-05-07 11:51 | 45.95093 | 21.07053 | 32049 ft | 467 kts | 306° |
| 2026-05-07 11:51 | 45.99302 | 20.99918 | 32044 ft | 466 kts | 306° |
| 2026-05-07 11:52 | 46.03535 | 20.92722 | 32039 ft | 467 kts | 305° |
| 2026-05-07 11:52 | 46.07742 | 20.85552 | 32037 ft | 467 kts | 305° |
| 2026-05-07 11:53 | 46.11930 | 20.78396 | 32025 ft | 468 kts | 305° |
| 2026-05-07 11:53 | 46.16096 | 20.71205 | 32018 ft | 466 kts | 302° |
| 2026-05-07 11:54 | 46.19884 | 20.63652 | 32017 ft | 466 kts | 301° |
| 2026-05-07 11:54 | 46.23641 | 20.56037 | 32017 ft | 465 kts | 301° |
| 2026-05-07 11:55 | 46.27385 | 20.48422 | 32009 ft | 464 kts | 301° |
| 2026-05-07 11:55 | 46.31151 | 20.40738 | 32005 ft | 465 kts | 301° |
| 2026-05-07 11:56 | 46.34906 | 20.33054 | 32008 ft | 466 kts | 300° |
| 2026-05-07 11:56 | 46.38640 | 20.25392 | 32010 ft | 465 kts | 300° |
| 2026-05-07 11:57 | 46.42366 | 20.17724 | 32007 ft | 467 kts | 300° |
| 2026-05-07 11:57 | 46.46098 | 20.10023 | 32007 ft | 466 kts | 300° |
| 2026-05-07 11:58 | 46.49831 | 20.02299 | 32006 ft | 468 kts | 300° |
| 2026-05-07 11:58 | 46.53559 | 19.94565 | 32003 ft | 467 kts | 300° |
| 2026-05-07 11:59 | 46.57293 | 19.86794 | 32000 ft | 467 kts | 300° |
| 2026-05-07 11:59 | 46.61041 | 19.78975 | 31998 ft | 467 kts | 300° |
| 2026-05-07 12:00 | 46.64805 | 19.71099 | 31996 ft | 467 kts | 300° |
| 2026-05-07 12:00 | 46.68527 | 19.63290 | 31995 ft | 467 kts | 300° |
| 2026-05-07 12:01 | 46.72217 | 19.55523 | 31994 ft | 468 kts | 300° |
| 2026-05-07 12:01 | 46.75993 | 19.47556 | 31990 ft | 468 kts | 300° |
| 2026-05-07 12:02 | 46.79709 | 19.39694 | 31985 ft | 468 kts | 300° |
| 2026-05-07 12:02 | 46.83415 | 19.31828 | 31996 ft | 468 kts | 299° |
| 2026-05-07 12:03 | 46.87082 | 19.24025 | 32004 ft | 465 kts | 299° |
| 2026-05-07 12:03 | 46.90766 | 19.16163 | 32004 ft | 467 kts | 299° |
| 2026-05-07 12:04 | 46.94411 | 19.08361 | 32005 ft | 466 kts | 299° |
| 2026-05-07 12:04 | 46.98088 | 19.00469 | 32001 ft | 467 kts | 298° |
| 2026-05-07 12:05 | 47.01745 | 18.92598 | 31999 ft | 466 kts | 298° |
| 2026-05-07 12:05 | 47.05444 | 18.84613 | 32008 ft | 467 kts | 298° |
| 2026-05-07 12:06 | 47.09081 | 18.76742 | 31992 ft | 466 kts | 298° |
| 2026-05-07 12:06 | 47.12729 | 18.68821 | 31990 ft | 466 kts | 298° |
| 2026-05-07 12:07 | 47.16355 | 18.60925 | 31988 ft | 469 kts | 298° |
| 2026-05-07 12:07 | 47.20009 | 18.52948 | 31980 ft | 467 kts | 298° |
| 2026-05-07 12:08 | 47.23633 | 18.45013 | 31990 ft | 467 kts | 298° |
| 2026-05-07 12:08 | 47.27260 | 18.37047 | 31976 ft | 468 kts | 298° |
| 2026-05-07 12:09 | 47.30870 | 18.29097 | 31975 ft | 467 kts | 297° |
| 2026-05-07 12:09 | 47.34486 | 18.21107 | 31970 ft | 470 kts | 297° |
| 2026-05-07 12:10 | 47.38112 | 18.13078 | 31962 ft | 468 kts | 297° |
| 2026-05-07 12:10 | 47.41715 | 18.05071 | 31966 ft | 469 kts | 297° |
| 2026-05-07 12:11 | 47.45338 | 17.96999 | 31963 ft | 469 kts | 297° |
| 2026-05-07 12:11 | 47.48914 | 17.89007 | 31962 ft | 469 kts | 297° |
| 2026-05-07 12:12 | 47.52507 | 17.80952 | 31973 ft | 470 kts | 297° |
| 2026-05-07 12:12 | 47.56122 | 17.72825 | 31971 ft | 470 kts | 297° |
| 2026-05-07 12:13 | 47.59698 | 17.64764 | 31974 ft | 468 kts | 296° |
| 2026-05-07 12:13 | 47.63269 | 17.56688 | 31969 ft | 470 kts | 297° |
| 2026-05-07 12:14 | 47.66832 | 17.48607 | 31961 ft | 471 kts | 296° |
| 2026-05-07 12:14 | 47.70443 | 17.40394 | 31953 ft | 472 kts | 297° |
| 2026-05-07 12:15 | 47.74020 | 17.32231 | 31958 ft | 473 kts | 296° |
| 2026-05-07 12:15 | 47.77598 | 17.24045 | 31965 ft | 471 kts | 296° |
| 2026-05-07 12:16 | 47.81171 | 17.15842 | 31961 ft | 473 kts | 296° |
| 2026-05-07 12:16 | 47.84871 | 17.07695 | 31963 ft | 478 kts | 302° |
| 2026-05-07 12:17 | 47.89181 | 17.00085 | 31965 ft | 482 kts | 303° |
| 2026-05-07 12:17 | 47.93470 | 16.92460 | 31966 ft | 481 kts | 303° |
| 2026-05-07 12:18 | 47.97730 | 16.84789 | 31966 ft | 482 kts | 302° |
| 2026-05-07 12:18 | 48.02008 | 16.77026 | 31973 ft | 483 kts | 302° |
| 2026-05-07 12:19 | 48.06273 | 16.69245 | 31976 ft | 482 kts | 302° |
| 2026-05-07 12:19 | 48.10508 | 16.61482 | 31979 ft | 483 kts | 302° |
| 2026-05-07 12:20 | 48.14741 | 16.53698 | 31967 ft | 483 kts | 302° |
| 2026-05-07 12:20 | 48.19000 | 16.45837 | 31968 ft | 485 kts | 302° |
| 2026-05-07 12:21 | 48.23221 | 16.38025 | 31969 ft | 483 kts | 302° |
| 2026-05-07 12:21 | 48.27468 | 16.30137 | 31977 ft | 485 kts | 301° |
| 2026-05-07 12:22 | 48.31707 | 16.22242 | 31973 ft | 484 kts | 301° |
| 2026-05-07 12:22 | 48.35912 | 16.14389 | 31968 ft | 484 kts | 301° |
| 2026-05-07 12:23 | 48.40142 | 16.06463 | 31967 ft | 487 kts | 302° |
| 2026-05-07 12:23 | 48.44400 | 15.98464 | 31966 ft | 485 kts | 301° |
| 2026-05-07 12:24 | 48.48617 | 15.90516 | 31972 ft | 487 kts | 301° |
| 2026-05-07 12:24 | 48.52837 | 15.82539 | 31975 ft | 486 kts | 302° |
| 2026-05-07 12:25 | 48.57062 | 15.74530 | 31978 ft | 487 kts | 302° |
| 2026-05-07 12:25 | 48.61262 | 15.66544 | 31973 ft | 487 kts | 302° |
| 2026-05-07 12:26 | 48.65484 | 15.58492 | 31969 ft | 486 kts | 302° |
| 2026-05-07 12:26 | 48.69648 | 15.50527 | 31970 ft | 486 kts | 302° |
| 2026-05-07 12:27 | 48.73842 | 15.42479 | 31976 ft | 487 kts | 302° |
| 2026-05-07 12:27 | 48.78025 | 15.34431 | 31968 ft | 486 kts | 301° |
| 2026-05-07 12:28 | 48.82203 | 15.26367 | 31975 ft | 485 kts | 301° |
| 2026-05-07 12:28 | 48.86354 | 15.18329 | 31974 ft | 486 kts | 301° |
| 2026-05-07 12:29 | 48.90525 | 15.10245 | 31970 ft | 485 kts | 302° |
| 2026-05-07 12:29 | 48.94902 | 15.02377 | 31968 ft | 487 kts | 304° |
| 2026-05-07 12:30 | 48.99313 | 14.94483 | 31973 ft | 487 kts | 304° |
| 2026-05-07 12:30 | 49.03675 | 14.86629 | 31966 ft | 487 kts | 304° |
| 2026-05-07 12:31 | 49.08054 | 14.78710 | 31952 ft | 487 kts | 304° |
| 2026-05-07 12:31 | 49.12389 | 14.70842 | 31939 ft | 486 kts | 304° |
| 2026-05-07 12:32 | 49.16744 | 14.62909 | 31937 ft | 485 kts | 304° |
| 2026-05-07 12:32 | 49.21080 | 14.54984 | 31942 ft | 486 kts | 304° |
| 2026-05-07 12:33 | 49.27552 | 14.43111 | 31944 ft | 485 kts | 304° |
| 2026-05-07 12:33 | 49.31867 | 14.35165 | 31938 ft | 485 kts | 304° |
| 2026-05-07 12:34 | 49.36196 | 14.27167 | 31946 ft | 484 kts | 304° |
| 2026-05-07 12:34 | 49.40460 | 14.19267 | 31941 ft | 484 kts | 304° |
| 2026-05-07 12:35 | 49.44740 | 14.11314 | 31939 ft | 483 kts | 304° |
| 2026-05-07 12:35 | 49.49052 | 14.03274 | 31944 ft | 484 kts | 304° |
| 2026-05-07 12:36 | 49.53313 | 13.95308 | 31946 ft | 484 kts | 304° |
| 2026-05-07 12:36 | 49.57588 | 13.87290 | 31944 ft | 483 kts | 304° |
| 2026-05-07 12:37 | 49.61852 | 13.79269 | 31947 ft | 481 kts | 305° |
| 2026-05-07 12:37 | 49.66062 | 13.71325 | 31946 ft | 481 kts | 305° |
| 2026-05-07 12:38 | 49.70285 | 13.63331 | 31950 ft | 480 kts | 306° |
| 2026-05-07 12:38 | 49.74521 | 13.55289 | 31953 ft | 480 kts | 306° |
| 2026-05-07 12:39 | 49.78706 | 13.47320 | 31953 ft | 479 kts | 306° |
| 2026-05-07 12:39 | 49.82910 | 13.39290 | 31956 ft | 479 kts | 306° |
| 2026-05-07 12:40 | 49.87081 | 13.31299 | 31954 ft | 478 kts | 306° |
| 2026-05-07 12:40 | 49.91277 | 13.23235 | 31952 ft | 478 kts | 306° |
| 2026-05-07 12:41 | 49.95435 | 13.15220 | 31957 ft | 478 kts | 306° |
| 2026-05-07 12:41 | 49.99589 | 13.07189 | 31950 ft | 477 kts | 306° |
| 2026-05-07 12:42 | 50.03742 | 12.99134 | 31961 ft | 477 kts | 307° |
| 2026-05-07 12:42 | 50.07870 | 12.91104 | 31940 ft | 476 kts | 307° |
| 2026-05-07 12:43 | 50.12001 | 12.83041 | 31989 ft | 476 kts | 307° |
| 2026-05-07 12:43 | 50.16083 | 12.75052 | 31956 ft | 471 kts | 307° |
| 2026-05-07 12:44 | 50.19517 | 12.66407 | 31973 ft | 469 kts | 297° |
| 2026-05-07 12:44 | 50.22570 | 12.57460 | 31958 ft | 468 kts | 298° |
| 2026-05-07 12:45 | 50.25633 | 12.48417 | 31964 ft | 473 kts | 298° |
| 2026-05-07 12:45 | 50.28700 | 12.39316 | 31964 ft | 470 kts | 298° |
| 2026-05-07 12:46 | 50.31205 | 12.29953 | 31970 ft | 470 kts | 284° |
| 2026-05-07 12:46 | 50.31789 | 12.19765 | 31960 ft | 473 kts | 265° |
| 2026-05-07 12:47 | 50.30295 | 12.09803 | 31980 ft | 475 kts | 247° |
| 2026-05-07 12:47 | 50.26877 | 12.00967 | 31994 ft | 476 kts | 233° |
| 2026-05-07 12:48 | 50.23145 | 11.92458 | 31990 ft | 476 kts | 237° |
| 2026-05-07 12:48 | 50.20100 | 11.83367 | 31977 ft | 475 kts | 252° |
| 2026-05-07 12:49 | 50.18995 | 11.73232 | 31965 ft | 475 kts | 270° |
| 2026-05-07 12:49 | 50.19083 | 11.63018 | 31985 ft | 475 kts | 272° |
| 2026-05-07 12:50 | 50.19210 | 11.52741 | 31979 ft | 474 kts | 272° |
| 2026-05-07 12:50 | 50.19329 | 11.42444 | 31979 ft | 477 kts | 272° |
| 2026-05-07 12:51 | 50.19442 | 11.32140 | 31992 ft | 477 kts | 271° |
| 2026-05-07 12:51 | 50.19545 | 11.21836 | 31992 ft | 478 kts | 271° |
| 2026-05-07 12:52 | 50.19640 | 11.11469 | 31998 ft | 479 kts | 271° |
| 2026-05-07 12:52 | 50.19726 | 11.01123 | 32002 ft | 480 kts | 271° |
| 2026-05-07 12:53 | 50.19784 | 10.90674 | 31996 ft | 479 kts | 270° |
| 2026-05-07 12:53 | 50.19712 | 10.80389 | 32015 ft | 479 kts | 270° |
| 2026-05-07 12:54 | 50.19630 | 10.69972 | 32019 ft | 478 kts | 270° |
| 2026-05-07 12:54 | 50.19542 | 10.59566 | 32019 ft | 479 kts | 270° |
| 2026-05-07 12:55 | 50.19448 | 10.49216 | 32024 ft | 478 kts | 270° |
| 2026-05-07 12:55 | 50.19346 | 10.38863 | 32016 ft | 478 kts | 270° |
| 2026-05-07 12:56 | 50.19233 | 10.28513 | 32005 ft | 478 kts | 269° |
| 2026-05-07 12:56 | 50.19111 | 10.18142 | 32022 ft | 477 kts | 269° |
| 2026-05-07 12:57 | 50.18981 | 10.07839 | 32027 ft | 477 kts | 269° |
| 2026-05-07 12:57 | 50.18862 | 9.97513 | 32021 ft | 478 kts | 270° |
| 2026-05-07 12:58 | 50.18777 | 9.87108 | 32023 ft | 476 kts | 270° |
| 2026-05-07 12:58 | 50.18682 | 9.76791 | 32016 ft | 474 kts | 270° |
| 2026-05-07 12:59 | 50.18577 | 9.66534 | 32017 ft | 473 kts | 270° |
| 2026-05-07 12:59 | 50.18462 | 9.56252 | 32017 ft | 471 kts | 270° |
| 2026-05-07 13:00 | 50.18340 | 9.46110 | 32013 ft | 468 kts | 270° |
| 2026-05-07 13:00 | 50.18208 | 9.35915 | 32017 ft | 469 kts | 270° |
| 2026-05-07 13:01 | 50.18825 | 9.25905 | 32018 ft | 467 kts | 285° |
| 2026-05-07 13:01 | 50.20856 | 9.16279 | 32023 ft | 467 kts | 289° |
| 2026-05-07 13:02 | 50.22975 | 9.06809 | 32018 ft | 465 kts | 292° |
| 2026-05-07 13:02 | 50.26284 | 8.98159 | 32024 ft | 465 kts | 310° |
| 2026-05-07 13:03 | 50.31123 | 8.91578 | 32023 ft | 465 kts | 328° |
| 2026-05-07 13:03 | 50.37064 | 8.87652 | 32023 ft | 467 kts | 346° |
| 2026-05-07 13:04 | 50.43483 | 8.86103 | 32025 ft | 468 kts | 352° |
| 2026-05-07 13:04 | 50.49902 | 8.84788 | 32024 ft | 468 kts | 352° |
| 2026-05-07 13:05 | 50.56360 | 8.83445 | 32023 ft | 468 kts | 352° |
| 2026-05-07 13:05 | 50.62660 | 8.81011 | 32019 ft | 467 kts | 337° |
| 2026-05-07 13:06 | 50.68184 | 8.75740 | 32020 ft | 467 kts | 321° |
| 2026-05-07 13:06 | 50.73145 | 8.69148 | 32019 ft | 466 kts | 320° |
| 2026-05-07 13:07 | 50.78043 | 8.62575 | 32015 ft | 467 kts | 320° |
| 2026-05-07 13:07 | 50.82969 | 8.55947 | 32013 ft | 467 kts | 320° |
| 2026-05-07 13:08 | 50.87930 | 8.49254 | 32011 ft | 467 kts | 320° |
| 2026-05-07 13:08 | 50.92876 | 8.42564 | 32013 ft | 471 kts | 320° |
| 2026-05-07 13:09 | 50.97839 | 8.35830 | 32012 ft | 469 kts | 320° |
| 2026-05-07 13:09 | 51.02852 | 8.29595 | 32009 ft | 466 kts | 328° |
| 2026-05-07 13:10 | 51.08511 | 8.24503 | 32009 ft | 467 kts | 330° |
| 2026-05-07 13:10 | 51.14172 | 8.19474 | 32007 ft | 467 kts | 330° |
| 2026-05-07 13:11 | 51.19845 | 8.14419 | 32007 ft | 467 kts | 330° |
| 2026-05-07 13:11 | 51.25483 | 8.09377 | 32014 ft | 467 kts | 330° |
| 2026-05-07 13:12 | 51.31135 | 8.04305 | 32013 ft | 470 kts | 330° |
| 2026-05-07 13:12 | 51.36845 | 7.99166 | 32020 ft | 470 kts | 330° |
| 2026-05-07 13:13 | 51.42501 | 7.94061 | 32033 ft | 470 kts | 330° |
| 2026-05-07 13:13 | 51.48362 | 7.89054 | 32519 ft | 476 kts | 338° |
| 2026-05-07 13:14 | 51.51439 | 7.87362 | 33201 ft | 470 kts | 343° |
| 2026-05-07 13:14 | 51.54546 | 7.85860 | 33782 ft | 465 kts | 343° |
| 2026-05-07 13:14 | 51.57649 | 7.84371 | 34002 ft | 468 kts | 343° |
| 2026-05-07 13:14 | 51.60769 | 7.82873 | 34038 ft | 468 kts | 343° |
| 2026-05-07 13:15 | 51.66939 | 7.79904 | 34044 ft | 460 kts | 343° |
| 2026-05-07 13:15 | 51.73024 | 7.76967 | 34053 ft | 457 kts | 343° |
| 2026-05-07 13:16 | 51.79036 | 7.73810 | 34047 ft | 457 kts | 336° |
| 2026-05-07 13:16 | 51.84405 | 7.68383 | 34048 ft | 458 kts | 319° |
| 2026-05-07 13:17 | 51.88538 | 7.60629 | 34048 ft | 456 kts | 302° |
| 2026-05-07 13:17 | 51.91415 | 7.51536 | 34056 ft | 454 kts | 296° |
| 2026-05-07 13:18 | 51.94140 | 7.42320 | 34048 ft | 454 kts | 296° |
| 2026-05-07 13:18 | 51.96856 | 7.33092 | 34054 ft | 455 kts | 295° |
| 2026-05-07 13:19 | 51.99568 | 7.23841 | 34047 ft | 456 kts | 295° |
| 2026-05-07 13:19 | 52.02273 | 7.14578 | 34040 ft | 455 kts | 295° |
| 2026-05-07 13:20 | 52.04964 | 7.05328 | 34037 ft | 454 kts | 295° |
| 2026-05-07 13:20 | 52.07651 | 6.96052 | 34035 ft | 455 kts | 295° |
| 2026-05-07 13:21 | 52.10322 | 6.86691 | 34033 ft | 455 kts | 294° |
| 2026-05-07 13:21 | 52.12949 | 6.77491 | 34023 ft | 455 kts | 293° |
| 2026-05-07 13:22 | 52.15203 | 6.67812 | 34038 ft | 455 kts | 290° |
| 2026-05-07 13:22 | 52.17358 | 6.58157 | 34044 ft | 455 kts | 290° |
| 2026-05-07 13:23 | 52.19493 | 6.48516 | 34042 ft | 455 kts | 290° |
| 2026-05-07 13:23 | 52.21621 | 6.38847 | 34041 ft | 454 kts | 289° |
| 2026-05-07 13:24 | 52.23753 | 6.29106 | 34045 ft | 454 kts | 289° |
| 2026-05-07 13:24 | 52.25860 | 6.19431 | 34045 ft | 454 kts | 289° |
| 2026-05-07 13:25 | 52.27948 | 6.09797 | 34036 ft | 453 kts | 289° |
| 2026-05-07 13:25 | 52.30041 | 6.00091 | 34048 ft | 454 kts | 289° |
| 2026-05-07 13:26 | 52.32133 | 5.90342 | 34042 ft | 454 kts | 289° |
| 2026-05-07 13:26 | 52.34208 | 5.80630 | 34044 ft | 454 kts | 289° |
| 2026-05-07 13:27 | 52.36289 | 5.70841 | 34047 ft | 454 kts | 289° |
| 2026-05-07 13:27 | 52.38365 | 5.61028 | 34054 ft | 456 kts | 289° |
| 2026-05-07 13:28 | 52.40440 | 5.51167 | 34063 ft | 456 kts | 289° |
| 2026-05-07 13:28 | 52.42495 | 5.41357 | 34058 ft | 453 kts | 289° |
| 2026-05-07 13:29 | 52.44534 | 5.31575 | 34060 ft | 454 kts | 288° |
| 2026-05-07 13:29 | 52.46578 | 5.21716 | 34053 ft | 457 kts | 287° |
| 2026-05-07 13:30 | 52.48608 | 5.11881 | 34067 ft | 462 kts | 287° |
| 2026-05-07 13:30 | 52.50647 | 5.01949 | 34065 ft | 462 kts | 288° |
| 2026-05-07 13:31 | 52.52689 | 4.91958 | 34069 ft | 465 kts | 287° |
| 2026-05-07 13:31 | 52.55319 | 4.82372 | 34054 ft | 457 kts | 301° |
| 2026-05-07 13:32 | 52.58948 | 4.73722 | 34065 ft | 469 kts | 306° |
| 2026-05-07 13:32 | 52.62678 | 4.64933 | 34063 ft | 470 kts | 306° |
| 2026-05-07 13:33 | 52.66391 | 4.56140 | 34075 ft | 468 kts | 306° |
| 2026-05-07 13:33 | 52.70134 | 4.47235 | 34083 ft | 470 kts | 306° |
| 2026-05-07 13:34 | 52.75604 | 4.33772 | 34088 ft | 471 kts | 300° |
| 2026-05-07 13:35 | 52.78788 | 4.24420 | 34082 ft | 470 kts | 300° |
| 2026-05-07 13:35 | 52.81978 | 4.14983 | 34090 ft | 470 kts | 300° |
| 2026-05-07 13:36 | 52.85160 | 4.05543 | 34093 ft | 471 kts | 300° |
| 2026-05-07 13:36 | 52.88338 | 3.96079 | 34093 ft | 472 kts | 300° |
| 2026-05-07 13:37 | 52.91528 | 3.86549 | 34096 ft | 473 kts | 300° |
| 2026-05-07 13:37 | 52.94741 | 3.76912 | 34096 ft | 473 kts | 300° |
| 2026-05-07 13:38 | 52.97934 | 3.67297 | 34097 ft | 474 kts | 300° |
| 2026-05-07 13:38 | 53.01109 | 3.57708 | 34104 ft | 473 kts | 300° |
| 2026-05-07 13:39 | 53.04277 | 3.48097 | 34099 ft | 473 kts | 300° |
| 2026-05-07 13:39 | 53.07461 | 3.38390 | 34108 ft | 474 kts | 300° |
| 2026-05-07 13:40 | 53.10006 | 3.28235 | 34093 ft | 476 kts | 284° |
| 2026-05-07 13:40 | 53.11006 | 3.17341 | 34107 ft | 478 kts | 277° |
| 2026-05-07 13:41 | 53.11769 | 3.06396 | 34103 ft | 479 kts | 277° |
| 2026-05-07 13:41 | 53.12527 | 2.95356 | 34101 ft | 478 kts | 277° |
| 2026-05-07 13:42 | 53.13269 | 2.84399 | 34100 ft | 478 kts | 277° |
| 2026-05-07 13:42 | 53.14003 | 2.73408 | 34099 ft | 478 kts | 277° |
| 2026-05-07 13:43 | 53.14733 | 2.62298 | 34095 ft | 479 kts | 277° |
| 2026-05-07 13:43 | 53.15453 | 2.51199 | 34098 ft | 478 kts | 277° |
| 2026-05-07 13:44 | 53.16163 | 2.40090 | 34098 ft | 479 kts | 277° |
| 2026-05-07 13:44 | 53.16855 | 2.29099 | 34096 ft | 479 kts | 276° |
| 2026-05-07 13:45 | 53.17540 | 2.18051 | 34095 ft | 479 kts | 276° |
| 2026-05-07 13:45 | 53.18209 | 2.07098 | 34096 ft | 480 kts | 276° |
| 2026-05-07 13:46 | 53.18868 | 1.96147 | 34096 ft | 480 kts | 276° |
| 2026-05-07 13:46 | 53.19527 | 1.84998 | 34099 ft | 480 kts | 276° |
| 2026-05-07 13:47 | 53.20177 | 1.73852 | 34096 ft | 479 kts | 276° |
| 2026-05-07 13:47 | 53.20817 | 1.62670 | 34088 ft | 480 kts | 276° |
| 2026-05-07 13:48 | 53.21444 | 1.51543 | 34091 ft | 480 kts | 276° |
| 2026-05-07 13:48 | 53.22060 | 1.40417 | 34089 ft | 479 kts | 276° |
| 2026-05-07 13:49 | 53.22667 | 1.29264 | 34085 ft | 478 kts | 275° |
| 2026-05-07 13:49 | 53.23254 | 1.18297 | 34078 ft | 478 kts | 275° |
| 2026-05-07 13:50 | 53.23835 | 1.07243 | 34083 ft | 479 kts | 275° |
| 2026-05-07 13:50 | 53.24405 | 0.96203 | 34084 ft | 478 kts | 275° |
| 2026-05-07 13:51 | 53.24963 | 0.85213 | 34076 ft | 479 kts | 275° |
| 2026-05-07 13:51 | 53.25512 | 0.74171 | 34070 ft | 479 kts | 275° |
| 2026-05-07 13:52 | 53.26054 | 0.63077 | 34076 ft | 478 kts | 275° |
| 2026-05-07 13:52 | 53.26584 | 0.52008 | 34068 ft | 478 kts | 275° |
| 2026-05-07 13:53 | 53.27103 | 0.40945 | 34061 ft | 478 kts | 274° |
| 2026-05-07 13:53 | 53.27613 | 0.29855 | 34059 ft | 477 kts | 274° |
| 2026-05-07 13:54 | 53.28111 | 0.18807 | 34057 ft | 479 kts | 274° |
| 2026-05-07 13:54 | 53.28628 | 0.07770 | 34048 ft | 477 kts | 277° |
| 2026-05-07 13:55 | 53.30390 | -0.02892 | 34053 ft | 478 kts | 294° |
| 2026-05-07 13:55 | 53.33340 | -0.12832 | 34061 ft | 478 kts | 297° |
| 2026-05-07 13:56 | 53.36285 | -0.22705 | 34061 ft | 478 kts | 296° |
| 2026-05-07 13:56 | 53.39228 | -0.32724 | 34059 ft | 478 kts | 296° |
| 2026-05-07 13:57 | 53.42149 | -0.42757 | 34057 ft | 479 kts | 296° |
| 2026-05-07 13:57 | 53.45043 | -0.52763 | 34058 ft | 478 kts | 296° |
| 2026-05-07 13:58 | 53.47918 | -0.62773 | 34053 ft | 478 kts | 296° |
| 2026-05-07 13:58 | 53.50761 | -0.72751 | 34046 ft | 477 kts | 295° |
| 2026-05-07 13:59 | 53.53612 | -0.82804 | 34045 ft | 477 kts | 295° |
| 2026-05-07 13:59 | 53.56455 | -0.92861 | 34036 ft | 477 kts | 295° |
| 2026-05-07 14:00 | 53.59018 | -1.03067 | 34032 ft | 476 kts | 285° |
| 2026-05-07 14:00 | 53.59932 | -1.14031 | 34029 ft | 473 kts | 268° |
| 2026-05-07 14:01 | 53.59178 | -1.24945 | 34028 ft | 471 kts | 259° |
| 2026-05-07 14:01 | 53.58123 | -1.35782 | 34021 ft | 472 kts | 259° |
| 2026-05-07 14:02 | 53.57049 | -1.46658 | 34017 ft | 471 kts | 259° |
| 2026-05-07 14:02 | 53.55969 | -1.57473 | 34017 ft | 472 kts | 259° |
| 2026-05-07 14:03 | 53.54870 | -1.68345 | 34012 ft | 472 kts | 258° |
| 2026-05-07 14:03 | 53.53771 | -1.79116 | 34008 ft | 472 kts | 258° |
| 2026-05-07 14:04 | 53.52913 | -1.90047 | 33996 ft | 472 kts | 268° |
| 2026-05-07 14:04 | 53.53376 | -2.01013 | 33991 ft | 474 kts | 274° |
| 2026-05-07 14:05 | 53.54002 | -2.12013 | 34000 ft | 474 kts | 274° |
| 2026-05-07 14:05 | 53.54617 | -2.23055 | 34000 ft | 474 kts | 274° |
| 2026-05-07 14:06 | 53.55217 | -2.34046 | 34001 ft | 475 kts | 274° |
| 2026-05-07 14:06 | 53.55808 | -2.45111 | 33998 ft | 473 kts | 274° |
| 2026-05-07 14:07 | 53.56390 | -2.56202 | 34003 ft | 474 kts | 274° |
| 2026-05-07 14:07 | 53.56957 | -2.67203 | 34001 ft | 473 kts | 272° |
| 2026-05-07 14:08 | 53.57513 | -2.78196 | 34000 ft | 472 kts | 272° |
| 2026-05-07 14:08 | 53.58059 | -2.89161 | 33998 ft | 473 kts | 272° |
| 2026-05-07 14:09 | 53.58598 | -3.00187 | 33995 ft | 473 kts | 272° |
| 2026-05-07 14:09 | 53.59125 | -3.11221 | 33997 ft | 473 kts | 272° |
| 2026-05-07 14:10 | 53.59638 | -3.22201 | 33997 ft | 472 kts | 272° |
| 2026-05-07 14:10 | 53.60144 | -3.33278 | 34001 ft | 472 kts | 272° |
| 2026-05-07 14:11 | 53.60642 | -3.44372 | 34001 ft | 471 kts | 272° |
| 2026-05-07 14:11 | 53.61125 | -3.55389 | 33999 ft | 472 kts | 272° |
| 2026-05-07 14:12 | 53.61599 | -3.66428 | 33997 ft | 472 kts | 271° |
| 2026-05-07 14:12 | 53.62062 | -3.77428 | 33994 ft | 471 kts | 271° |
| 2026-05-07 14:13 | 53.62515 | -3.88453 | 33993 ft | 471 kts | 271° |
| 2026-05-07 14:13 | 53.62956 | -3.99417 | 33990 ft | 470 kts | 271° |
| 2026-05-07 14:14 | 53.63387 | -4.10367 | 33989 ft | 470 kts | 271° |
| 2026-05-07 14:14 | 53.63807 | -4.21302 | 33986 ft | 469 kts | 271° |
| 2026-05-07 14:15 | 53.64217 | -4.32262 | 33985 ft | 469 kts | 271° |
| 2026-05-07 14:15 | 53.64616 | -4.43150 | 33978 ft | 469 kts | 271° |
| 2026-05-07 14:16 | 53.65007 | -4.54108 | 33979 ft | 469 kts | 271° |
| 2026-05-07 14:16 | 53.65388 | -4.65083 | 33973 ft | 468 kts | 270° |
| 2026-05-07 14:17 | 53.65757 | -4.75992 | 33970 ft | 468 kts | 270° |
| 2026-05-07 14:17 | 53.66114 | -4.86828 | 33965 ft | 466 kts | 270° |
| 2026-05-07 14:18 | 53.66467 | -4.97720 | 33963 ft | 469 kts | 270° |
| 2026-05-07 14:18 | 53.66813 | -5.08680 | 33954 ft | 466 kts | 270° |
| 2026-05-07 14:19 | 53.67144 | -5.19554 | 33955 ft | 465 kts | 270° |
| 2026-05-07 14:19 | 53.67459 | -5.30450 | 33952 ft | 466 kts | 270° |
| 2026-05-07 14:20 | 53.67764 | -5.41335 | 33953 ft | 465 kts | 270° |
| 2026-05-07 14:20 | 53.68066 | -5.52162 | 33949 ft | 466 kts | 272° |
| 2026-05-07 14:21 | 53.68853 | -5.62914 | 33955 ft | 467 kts | 275° |
| 2026-05-07 14:21 | 53.69680 | -5.73782 | 33953 ft | 466 kts | 274° |
| 2026-05-07 14:22 | 53.70472 | -5.84558 | 33944 ft | 466 kts | 274° |
| 2026-05-07 14:22 | 53.71249 | -5.95436 | 33939 ft | 465 kts | 273° |
| 2026-05-07 14:23 | 53.72006 | -6.06261 | 33934 ft | 464 kts | 273° |
| 2026-05-07 14:23 | 53.72745 | -6.17001 | 33935 ft | 464 kts | 273° |
| 2026-05-07 14:24 | 53.73474 | -6.27779 | 33933 ft | 464 kts | 273° |
| 2026-05-07 14:24 | 53.74197 | -6.38610 | 33927 ft | 462 kts | 273° |
| 2026-05-07 14:25 | 53.74906 | -6.49388 | 33925 ft | 462 kts | 273° |
| 2026-05-07 14:25 | 53.75601 | -6.60114 | 33921 ft | 461 kts | 273° |
| 2026-05-07 14:26 | 53.76287 | -6.70856 | 33923 ft | 460 kts | 272° |
| 2026-05-07 14:26 | 53.76960 | -6.81551 | 33916 ft | 460 kts | 272° |
| 2026-05-07 14:27 | 53.77625 | -6.92260 | 33916 ft | 460 kts | 272° |
| 2026-05-07 14:27 | 53.78284 | -7.03039 | 33915 ft | 460 kts | 272° |
| 2026-05-07 14:28 | 53.78930 | -7.13768 | 33913 ft | 459 kts | 272° |
| 2026-05-07 14:28 | 53.79562 | -7.24411 | 33911 ft | 458 kts | 272° |
| 2026-05-07 14:29 | 53.80190 | -7.35171 | 33908 ft | 457 kts | 272° |
| 2026-05-07 14:29 | 53.80804 | -7.45848 | 33910 ft | 458 kts | 272° |
| 2026-05-07 14:30 | 53.81407 | -7.56503 | 33910 ft | 457 kts | 272° |
| 2026-05-07 14:30 | 53.82003 | -7.67209 | 33910 ft | 457 kts | 272° |
| 2026-05-07 14:31 | 53.82586 | -7.77843 | 33911 ft | 456 kts | 272° |
| 2026-05-07 14:31 | 53.83160 | -7.88484 | 33910 ft | 456 kts | 272° |
| 2026-05-07 14:32 | 53.83725 | -7.99148 | 33911 ft | 456 kts | 272° |
| 2026-05-07 14:32 | 53.84290 | -8.10033 | 33912 ft | 467 kts | 272° |
| 2026-05-07 14:33 | 53.84848 | -8.20924 | 33910 ft | 464 kts | 272° |
| 2026-05-07 14:33 | 53.85392 | -8.31737 | 33913 ft | 464 kts | 272° |
| 2026-05-07 14:34 | 53.85928 | -8.42604 | 33912 ft | 463 kts | 272° |
| 2026-05-07 14:34 | 53.86456 | -8.53495 | 33908 ft | 463 kts | 272° |
| 2026-05-07 14:35 | 53.86972 | -8.64353 | 33907 ft | 462 kts | 272° |
| 2026-05-07 14:35 | 53.87477 | -8.75194 | 33907 ft | 462 kts | 271° |
| 2026-05-07 14:36 | 53.87967 | -8.85934 | 33905 ft | 461 kts | 271° |
| 2026-05-07 14:36 | 53.88450 | -8.96714 | 33912 ft | 460 kts | 271° |
| 2026-05-07 14:37 | 53.88923 | -9.07488 | 33921 ft | 459 kts | 271° |
| 2026-05-07 14:37 | 53.89613 | -9.23648 | 33919 ft | 458 kts | 271° |
| 2026-05-07 14:38 | 53.90063 | -9.34445 | 33914 ft | 458 kts | 271° |
| 2026-05-07 14:38 | 53.90499 | -9.45175 | 33906 ft | 458 kts | 271° |
| 2026-05-07 14:39 | 53.90928 | -9.55941 | 33898 ft | 456 kts | 271° |
| 2026-05-07 14:39 | 53.91344 | -9.66626 | 33900 ft | 456 kts | 270° |
| 2026-05-07 14:40 | 53.91751 | -9.77342 | 33910 ft | 454 kts | 270° |
| 2026-05-07 14:40 | 53.92147 | -9.88027 | 33907 ft | 455 kts | 270° |
| 2026-05-07 14:41 | 53.92535 | -9.98708 | 33902 ft | 454 kts | 270° |
| 2026-05-07 14:41 | 53.92910 | -10.09355 | 33906 ft | 455 kts | 270° |
| 2026-05-07 14:42 | 53.93279 | -10.20057 | 33912 ft | 454 kts | 270° |
| 2026-05-07 14:42 | 53.93640 | -10.30810 | 33909 ft | 453 kts | 270° |
| 2026-05-07 14:43 | 53.93986 | -10.41422 | 33911 ft | 454 kts | 270° |
| 2026-05-07 14:43 | 53.94324 | -10.52070 | 33908 ft | 453 kts | 270° |
| 2026-05-07 14:44 | 53.94654 | -10.62758 | 33907 ft | 453 kts | 270° |
| 2026-05-07 14:44 | 53.94974 | -10.73429 | 33913 ft | 452 kts | 269° |
| 2026-05-07 14:45 | 53.95285 | -10.84117 | 33911 ft | 452 kts | 269° |
| 2026-05-07 14:45 | 53.95583 | -10.94697 | 33910 ft | 450 kts | 269° |
| 2026-05-07 14:46 | 53.95872 | -11.05265 | 33914 ft | 451 kts | 269° |
| 2026-05-07 14:46 | 53.96151 | -11.15844 | 33918 ft | 451 kts | 269° |
| 2026-05-07 14:47 | 53.96422 | -11.26440 | 33909 ft | 449 kts | 269° |
| 2026-05-07 14:47 | 53.96685 | -11.37087 | 33915 ft | 450 kts | 269° |
| 2026-05-07 14:48 | 53.96937 | -11.47686 | 33919 ft | 449 kts | 268° |
| 2026-05-07 14:48 | 53.97179 | -11.58288 | 33908 ft | 449 kts | 268° |
| 2026-05-07 14:49 | 53.97412 | -11.68839 | 33908 ft | 447 kts | 268° |
| 2026-05-07 14:49 | 53.97635 | -11.79384 | 33908 ft | 446 kts | 268° |
| 2026-05-07 14:50 | 53.97847 | -11.89868 | 33908 ft | 447 kts | 268° |
| 2026-05-07 14:50 | 53.98052 | -12.00449 | 33908 ft | 446 kts | 268° |
| 2026-05-07 14:51 | 53.98246 | -12.10950 | 33911 ft | 447 kts | 268° |
| 2026-05-07 14:51 | 53.98433 | -12.21544 | 33913 ft | 447 kts | 268° |
| 2026-05-07 14:52 | 53.98610 | -12.32099 | 33915 ft | 446 kts | 268° |
| 2026-05-07 14:52 | 53.98744 | -12.40509 | 33917 ft | 447 kts | 268° |
| 2026-05-07 14:53 | 53.98935 | -12.53158 | 33920 ft | 445 kts | 268° |
| 2026-05-07 14:53 | 53.99011 | -12.58423 | 33161 ft | 460 kts | 268° |
| 2026-05-07 14:53 | 53.99084 | -12.63493 | 33539 ft | 435 kts | 268° |
| 2026-05-07 14:54 | 53.99132 | -12.67035 | 33640 ft | 438 kts | 266° |
| 2026-05-07 14:54 | 53.99216 | -12.73589 | 33896 ft | 444 kts | 267° |
| 2026-05-07 14:54 | 53.99327 | -12.82510 | 33928 ft | 445 kts | 267° |
| 2026-05-07 14:55 | 53.99506 | -12.98193 | 33942 ft | 446 kts | 267° |
| 2026-05-07 14:56 | 53.99589 | -13.06126 | 33936 ft | 445 kts | 267° |
| 2026-05-07 14:56 | 53.99721 | -13.19828 | 33920 ft | 445 kts | 267° |
| 2026-05-07 14:57 | 53.99838 | -13.33649 | 33931 ft | 442 kts | 267° |
| 2026-05-07 14:57 | 53.99916 | -13.44022 | 33922 ft | 441 kts | 267° |
| 2026-05-07 14:58 | 53.99984 | -13.54447 | 33914 ft | 442 kts | 267° |
| 2026-05-07 14:58 | 54.00040 | -13.64299 | 33913 ft | 441 kts | 267° |
| 2026-05-07 14:59 | 54.00074 | -13.71038 | 33939 ft | 442 kts | 266° |
| 2026-05-07 15:00 | 54.00144 | -13.88125 | 33921 ft | 440 kts | 266° |
| 2026-05-07 15:00 | 54.00166 | -13.95441 | 33914 ft | 440 kts | 266° |
| 2026-05-07 15:01 | 54.00178 | -14.00300 | 33924 ft | 441 kts | 266° |
| 2026-05-07 15:01 | 54.00194 | -14.08210 | 33925 ft | 441 kts | 266° |
| 2026-05-07 15:02 | 54.00209 | -14.20436 | 33933 ft | 441 kts | 267° |
| 2026-05-07 15:02 | 54.00211 | -14.27493 | 33930 ft | 441 kts | 267° |
| 2026-05-07 15:03 | 54.00209 | -14.37167 | 33942 ft | 440 kts | 267° |
| 2026-05-07 15:04 | 54.00197 | -14.47142 | 33940 ft | 440 kts | 267° |
| 2026-05-07 15:04 | 54.00184 | -14.54540 | 33958 ft | 438 kts | 267° |
| 2026-05-07 15:05 | 54.00171 | -14.60193 | 33945 ft | 437 kts | 267° |
| 2026-05-07 15:06 | 54.00165 | -14.62190 | 33945 ft | 437 kts | 267° |